Terminal Aerodrome Forecast
Issued by NWS Goodland, KS

Home | Current Version | Previous Version | Text Only | Print | Product List | Glossary On
Versions: 1 2 3 4 5 6 7 8 9 10 11 12 13 14 15 16 17 18 19 20 21 22
969
FTUS43 KGLD 250533
TAFGLD
TAF
KGLD 250533Z 2506/2606 03010KT P6SM VCSH BKN004
     FM250800 02011G19KT P6SM VCTS OVC003CB
     FM251200 02011G18KT 6SM -SHRA BR VCTS SCT003 OVC008CB
      TEMPO 2513/2517 3SM SHRA BR BKN003
     FM251700 02012G19KT P6SM VCSH SCT003 OVC008
     FM260000 01010KT P6SM OVC008=

USA.gov is the U.S. government's official web portal to all federal, state and local government web resources and services.